L'Astrolabe — FHZI — position and weather

sailwx.info

Track history (hours):
 
Tides and Currents Weather Stations Pressure Air Temp Water Temp Dewpoint Dewpoint Depression Visibility Wind Speed Wind Dir Waves Ship Positions

Oceanographic research ship L'Astrolabe (France)

Ship's website: http://www.ifremer.fr/ifrtp/pages/astrolabe.html

Detailed information on ship capabilities available from University of Delaware's Ocean Information Center.

Last reported at 2014-Dec-21 00:00 UTC. Time now 2014-Dec-21 06:14 UTC.
Position S 66°18' E 139°54'.

Length 65.5 m; beam 13.1 m; draft 4.7 m.

Type: Other ship. MMSI: 227152000.

Wind from 260 at 8 knots

Barometer 990.1 mb
Air temperature -1.5 ° C
Dewpoint -3.3 ° C

Date/timePositionNaut miles runAvg speedWind from/ knotsBaromVisibWave heightAir tempDewpointWater temp
2014-Dec-21 00:00S 66°18' E 139°54'0 0.0 260 / 8990.1 -1.5-3.3
2014-Dec-20 23:00S 66°18' E 139°54'0 0.0 270 / 9990.2 -1.3-1.6
2014-Dec-20 21:00S 66°18' E 139°54'0 0.0 260 / 6990.2 -1.5
2014-Dec-20 18:00S 66°18' E 139°54'0 0.0 280 / 8990.9 -2.8
2014-Dec-20 17:00S 66°18' E 139°54'2 0.5 290 / 7990.9 -3.9-3.9
2014-Dec-20 12:00S 66°18' E 139°48'0 0.0 280 / 4991.6 -1.0-1.7
2014-Dec-20 11:00S 66°18' E 139°48'0 0.0 310 / 6991.7 -1.0-2.0
2014-Dec-20 09:00S 66°18' E 139°48'0 0.0 350 / 3991.8 1.1-1.1
2014-Dec-20 05:00S 66°18' E 139°48'0 0.0 090 / 6992.8 -0.1-2.2
2014-Dec-19 21:00S 66°18' E 139°48'0 0.0 110 / 12995.9 -1.1-1.8
2014-Dec-19 20:00S 66°18' E 139°48'0 0.0 120 / 13995.6 -1.3-2.0
2014-Dec-19 18:00S 66°18' E 139°48'0 0.0 110 / 14995.9 -1.3-2.2
2014-Dec-19 15:00S 66°18' E 139°48'0 0.0 120 / 14995.6 -1.4-1.6
2014-Dec-19 08:00S 66°18' E 139°48'0 0.0 090 / 18994.9 -1.0-1.0
2014-Dec-19 06:00S 66°18' E 139°48'2 0.8 110 / 18994.5 -1.3
2014-Dec-19 03:00S 66°18' E 139°42'0 0.0 100 / 20993.5 -1.3
2014-Dec-19 02:00S 66°18' E 139°42'0 0.0 100 / 18993.1 -1.4
2014-Dec-18 21:00S 66°18' E 139°42'0 0.0 100 / 18990.3 -2.1-2.1
2014-Dec-18 17:00S 66°18' E 139°42'0 0.0 110 / 12988.1 -2.4
2014-Dec-18 15:00S 66°18' E 139°42'0 0.0 110 / 14987.7 -2.2-2.2
2014-Dec-18 12:00S 66°18' E 139°42'0 0.0 110 / 11987.9 -1.6-2.4
2014-Dec-18 11:00S 66°18' E 139°42'2 0.5 110 / 16987.8 -1.4-2.3
2014-Dec-18 06:00S 66°18' E 139°36'0 0.0 080 / 10988.5 -1.1
2014-Dec-18 05:00S 66°18' E 139°36'5 1.0 090 / 18988.4 -1.1
2014-Dec-18 00:00S 66°18' E 139°48'0 0.0 100 / 23987.8 -1.1
2014-Dec-17 23:00S 66°18' E 139°48'6 3.2 100 / 26986.8 -2.4
2014-Dec-17 21:00S 66°12' E 139°54'0 0.0 100 / 27985.7 -2.3
2014-Dec-17 17:00S 66°12' E 139°54'0 0.0 100 / 40982.7 -2.3
2014-Dec-17 15:00S 66°12' E 139°54'6 6.5 110 / 40980.7 -2.3
2014-Dec-17 14:00S 66°18' E 139°48'2 1.2 100 / 45980.1 -2.5
2014-Dec-17 12:00S 66°18' E 139°54'0 0.0 100 / 24978.1 -2.7
2014-Dec-17 09:00S 66°18' E 139°54'6 6.5 120 / 54978.5 -1.8-4.9-1.3
2014-Dec-17 08:00S 66°24' E 139°48'0 0.0 110 / 45980.3 -1.0-4.5-1.2
2014-Dec-17 03:00S 66°24' E 139°48'0 0.0 100 / 31986.9 -1.5-6.4-1.2
2014-Dec-17 02:00S 66°24' E 139°48'0 0.0 100 / 30987.8 -2.2-6.3-1.2
2014-Dec-17 00:00S 66°24' E 139°48'2 0.8 110 / 28990.5 -2.7-7.4-1.3
2014-Dec-16 21:00S 66°24' E 139°42'2 0.1 110 / 20992.7 -5.5-10.7-1.3
2014-Dec-15 23:00S 66°24' E 139°48'0 0.0 110 / 13992.4 -3.6-9.3-1.2
2014-Dec-15 21:00S 66°24' E 139°48'0 0.0 120 / 15992.7 -5.8-10.2-1.2
2014-Dec-15 18:00S 66°24' E 139°48'0 0.0 130 / 17993.0 -8.1-9.9-1.2
2014-Dec-15 17:00S 66°24' E 139°48'0 0.0 130 / 15992.7 -8.8-10.8-1.2
2014-Dec-15 15:00S 66°24' E 139°48'0 0.0 130 / 11993.0 -8.9-11.5-1.3
2014-Dec-15 14:00S 66°24' E 139°48'0 0.0 120 / 12993.1 -7.7-9.5-1.3
2014-Dec-15 12:00S 66°24' E 139°48'0 0.0 120 / 12993.1 -3.9-6.2-1.3
2014-Dec-15 11:00S 66°24' E 139°48'0 0.0 120 / 11993.0 -3.8-6.0-1.4
2014-Dec-15 09:00S 66°24' E 139°48'0 0.0 100 / 14993.1 -2.4-5.5-1.5
2014-Dec-15 08:00S 66°24' E 139°48'0 0.0 100 / 17993.2 -2.4-5.7-1.5
2014-Dec-15 06:00S 66°24' E 139°48'0 0.0 100 / 19994.0 -2.5-6.1-1.6
2014-Dec-15 05:00S 66°24' E 139°48'0 0.0 090 / 21994.3 -2.4-6.1-1.6
2014-Dec-15 03:00S 66°24' E 139°48'0 0.0 100 / 25995.0 -2.2-5.8-1.7
2014-Dec-15 02:00S 66°24' E 139°48'0 0.0 100 / 25995.3 -2.0-5.0-1.7
2014-Dec-15 00:00S 66°24' E 139°48'0 0.0 110 / 27995.6 -2.5-4.8-1.8
2014-Dec-14 21:00S 66°24' E 139°48'0 0.0 120 / 26996.0 -3.6-5.8-1.4
2014-Dec-14 20:00S 66°24' E 139°48'0 0.0 120 / 26996.1 -3.9-6.8-1.4
2014-Dec-14 18:00S 66°24' E 139°48'0 0.0 120 / 25996.1 -4.0-6.5-1.5
2014-Dec-14 17:00S 66°24' E 139°48'0 0.0 120 / 21996.5 -4.7-6.9-1.5
2014-Dec-14 15:00S 66°24' E 139°48'0 0.0 120 / 20996.9 -4.8-7.1-1.6
2014-Dec-14 14:00S 66°24' E 139°48'0 0.0 120 / 19997.4 -5.0-6.9-1.6
2014-Dec-14 12:00S 66°24' E 139°48'8 7.7 120 / 17998.2 -3.8-5.7-1.7
2014-Dec-14 11:00S 66°18' E 139°36'6 3.2 120 / 16998.1 -3.3-4.6-1.7
2014-Dec-14 09:00S 66°24' E 139°30'0 0.0 110 / 16997.9 -2.8-4.5-1.5
2014-Dec-14 06:00S 66°24' E 139°30'0 0.0 110 / 12998.0 -2.2-4.9-1.5
2014-Dec-14 05:00S 66°24' E 139°30'0 0.0 110 / 12997.9 -2.0-5.6-1.5
2014-Dec-14 03:00S 66°24' E 139°30'0 0.0 100 / 9998.0 -2.3-6.9-1.5
2014-Dec-14 00:00S 66°24' E 139°30'0 0.0 100 / 8997.7 -4.7-8.8-1.7
2014-Dec-13 23:00S 66°24' E 139°30'7 0.3 110 / 9997.8 -5.7-9.3-1.6
2014-Dec-12 21:00S 66°24' E 139°48'0 0.0 100 / 2987.2 -4.8-6.2-1.0
2014-Dec-12 20:00S 66°24' E 139°48'0 0.0 130 / 8986.5 -5.0-6.0-1.1
2014-Dec-12 18:00S 66°24' E 139°48'0 0.0 140 / 4985.9 -5.5-6.6-1.1
2014-Dec-12 12:00S 66°24' E 139°48'0 0.0 130 / 7984.3 -3.9-7.1-1.1
2014-Dec-12 09:00S 66°24' E 139°48'0 0.0 983.8 -1.6-7.6-1.2
2014-Dec-12 03:00S 66°24' E 139°48'0 0.0 280 / 5982.8 -2.3-8.2-1.5
2014-Dec-12 02:00S 66°24' E 139°48'0 0.0 290 / 5982.7 -1.7-8.6-1.5
2014-Dec-12 00:00S 66°24' E 139°48'0 0.0 230 / 2982.3 -2.4-9.0-1.6
2014-Dec-11 23:00S 66°24' E 139°48'0 0.0 220 / 2981.9 -5.6-11.0-1.5
2014-Dec-11 21:00S 66°24' E 139°48'6 1.5 981.1 -8.5-13.6-1.6
2014-Dec-11 17:00S 66°18' E 139°48'2 1.2 230 / 8979.0 -6.8-10.4-1.6
2014-Dec-11 15:00S 66°18' E 139°42'12 4.1 250 / 10978.5 -3.5-5.4-1.7
2014-Dec-11 12:00S 66°06' E 139°48'19 6.2 280 / 14978.0 -3.9-5.2-1.8
2014-Dec-11 09:00S 65°48' E 140°00'2 2.5 270 / 13978.0 -3.5-5.4-1.9
2014-Dec-11 08:00S 65°48' E 140°06'12 5.8 270 / 12977.6 -3.6-6.2-1.8
2014-Dec-11 06:00S 65°42' E 140°30'10 9.9 270 / 13977.8 -3.4-5.8-1.4
2014-Dec-11 05:00S 65°42' E 140°54'48 9.6 280 / 13977.7 -3.6-6.0-1.4
2014-Dec-11 00:00S 65°12' E 142°24'   240 / 21977.9 -2.9-5.1-1.6
Track history (hours):
 
Tides and Currents Weather Stations Pressure Air Temp Water Temp Dewpoint Dewpoint Depression Visibility Wind Speed Wind Dir Waves Ship Positions

Oceanographic research ship L'Astrolabe (France)

Ship's website: http://www.ifremer.fr/ifrtp/pages/astrolabe.html

Detailed information on ship capabilities available from University of Delaware's Ocean Information Center.

Last reported at 2014-Dec-21 00:00 UTC. Time now 2014-Dec-21 06:14 UTC.
Position S 66°18' E 139°54'.

Length 65.5 m; beam 13.1 m; draft 4.7 m.

Type: Other ship. MMSI: 227152000.

Wind from 260 at 8 knots

Barometer 990.1 mb
Air temperature -1.5 ° C
Dewpoint -3.3 ° C

Date/timePositionNaut miles runAvg speedWind from/ knotsBaromVisibWave heightAir tempDewpointWater temp
2014-Dec-21 00:00S 66°18' E 139°54'0 0.0 260 / 8990.1 -1.5-3.3
2014-Dec-20 23:00S 66°18' E 139°54'0 0.0 270 / 9990.2 -1.3-1.6
2014-Dec-20 21:00S 66°18' E 139°54'0 0.0 260 / 6990.2 -1.5
2014-Dec-20 18:00S 66°18' E 139°54'0 0.0 280 / 8990.9 -2.8
2014-Dec-20 17:00S 66°18' E 139°54'2 0.5 290 / 7990.9 -3.9-3.9
2014-Dec-20 12:00S 66°18' E 139°48'0 0.0 280 / 4991.6 -1.0-1.7
2014-Dec-20 11:00S 66°18' E 139°48'0 0.0 310 / 6991.7 -1.0-2.0
2014-Dec-20 09:00S 66°18' E 139°48'0 0.0 350 / 3991.8 1.1-1.1
2014-Dec-20 05:00S 66°18' E 139°48'0 0.0 090 / 6992.8 -0.1-2.2
2014-Dec-19 21:00S 66°18' E 139°48'0 0.0 110 / 12995.9 -1.1-1.8
2014-Dec-19 20:00S 66°18' E 139°48'0 0.0 120 / 13995.6 -1.3-2.0
2014-Dec-19 18:00S 66°18' E 139°48'0 0.0 110 / 14995.9 -1.3-2.2
2014-Dec-19 15:00S 66°18' E 139°48'0 0.0 120 / 14995.6 -1.4-1.6
2014-Dec-19 08:00S 66°18' E 139°48'0 0.0 090 / 18994.9 -1.0-1.0
2014-Dec-19 06:00S 66°18' E 139°48'2 0.8 110 / 18994.5 -1.3
2014-Dec-19 03:00S 66°18' E 139°42'0 0.0 100 / 20993.5 -1.3
2014-Dec-19 02:00S 66°18' E 139°42'0 0.0 100 / 18993.1 -1.4
2014-Dec-18 21:00S 66°18' E 139°42'0 0.0 100 / 18990.3 -2.1-2.1
2014-Dec-18 17:00S 66°18' E 139°42'0 0.0 110 / 12988.1 -2.4
2014-Dec-18 15:00S 66°18' E 139°42'0 0.0 110 / 14987.7 -2.2-2.2
2014-Dec-18 12:00S 66°18' E 139°42'0 0.0 110 / 11987.9 -1.6-2.4
2014-Dec-18 11:00S 66°18' E 139°42'2 0.5 110 / 16987.8 -1.4-2.3
2014-Dec-18 06:00S 66°18' E 139°36'0 0.0 080 / 10988.5 -1.1
2014-Dec-18 05:00S 66°18' E 139°36'5 1.0 090 / 18988.4 -1.1
2014-Dec-18 00:00S 66°18' E 139°48'0 0.0 100 / 23987.8 -1.1
2014-Dec-17 23:00S 66°18' E 139°48'6 3.2 100 / 26986.8 -2.4
2014-Dec-17 21:00S 66°12' E 139°54'0 0.0 100 / 27985.7 -2.3
2014-Dec-17 17:00S 66°12' E 139°54'0 0.0 100 / 40982.7 -2.3
2014-Dec-17 15:00S 66°12' E 139°54'6 6.5 110 / 40980.7 -2.3
2014-Dec-17 14:00S 66°18' E 139°48'2 1.2 100 / 45980.1 -2.5
2014-Dec-17 12:00S 66°18' E 139°54'0 0.0 100 / 24978.1 -2.7
2014-Dec-17 09:00S 66°18' E 139°54'6 6.5 120 / 54978.5 -1.8-4.9-1.3
2014-Dec-17 08:00S 66°24' E 139°48'0 0.0 110 / 45980.3 -1.0-4.5-1.2
2014-Dec-17 03:00S 66°24' E 139°48'0 0.0 100 / 31986.9 -1.5-6.4-1.2
2014-Dec-17 02:00S 66°24' E 139°48'0 0.0 100 / 30987.8 -2.2-6.3-1.2
2014-Dec-17 00:00S 66°24' E 139°48'2 0.8 110 / 28990.5 -2.7-7.4-1.3
2014-Dec-16 21:00S 66°24' E 139°42'2 0.1 110 / 20992.7 -5.5-10.7-1.3
2014-Dec-15 23:00S 66°24' E 139°48'0 0.0 110 / 13992.4 -3.6-9.3-1.2
2014-Dec-15 21:00S 66°24' E 139°48'0 0.0 120 / 15992.7 -5.8-10.2-1.2
2014-Dec-15 18:00S 66°24' E 139°48'0 0.0 130 / 17993.0 -8.1-9.9-1.2
2014-Dec-15 17:00S 66°24' E 139°48'0 0.0 130 / 15992.7 -8.8-10.8-1.2
2014-Dec-15 15:00S 66°24' E 139°48'0 0.0 130 / 11993.0 -8.9-11.5-1.3
2014-Dec-15 14:00S 66°24' E 139°48'0 0.0 120 / 12993.1 -7.7-9.5-1.3
2014-Dec-15 12:00S 66°24' E 139°48'0 0.0 120 / 12993.1 -3.9-6.2-1.3
2014-Dec-15 11:00S 66°24' E 139°48'0 0.0 120 / 11993.0 -3.8-6.0-1.4
2014-Dec-15 09:00S 66°24' E 139°48'0 0.0 100 / 14993.1 -2.4-5.5-1.5
2014-Dec-15 08:00S 66°24' E 139°48'0 0.0 100 / 17993.2 -2.4-5.7-1.5
2014-Dec-15 06:00S 66°24' E 139°48'0 0.0 100 / 19994.0 -2.5-6.1-1.6
2014-Dec-15 05:00S 66°24' E 139°48'0 0.0 090 / 21994.3 -2.4-6.1-1.6
2014-Dec-15 03:00S 66°24' E 139°48'0 0.0 100 / 25995.0 -2.2-5.8-1.7
2014-Dec-15 02:00S 66°24' E 139°48'0 0.0 100 / 25995.3 -2.0-5.0-1.7
2014-Dec-15 00:00S 66°24' E 139°48'0 0.0 110 / 27995.6 -2.5-4.8-1.8
2014-Dec-14 21:00S 66°24' E 139°48'0 0.0 120 / 26996.0 -3.6-5.8-1.4
2014-Dec-14 20:00S 66°24' E 139°48'0 0.0 120 / 26996.1 -3.9-6.8-1.4
2014-Dec-14 18:00S 66°24' E 139°48'0 0.0 120 / 25996.1 -4.0-6.5-1.5
2014-Dec-14 17:00S 66°24' E 139°48'0 0.0 120 / 21996.5 -4.7-6.9-1.5
2014-Dec-14 15:00S 66°24' E 139°48'0 0.0 120 / 20996.9 -4.8-7.1-1.6
2014-Dec-14 14:00S 66°24' E 139°48'0 0.0 120 / 19997.4 -5.0-6.9-1.6
2014-Dec-14 12:00S 66°24' E 139°48'8 7.7 120 / 17998.2 -3.8-5.7-1.7
2014-Dec-14 11:00S 66°18' E 139°36'6 3.2 120 / 16998.1 -3.3-4.6-1.7
2014-Dec-14 09:00S 66°24' E 139°30'0 0.0 110 / 16997.9 -2.8-4.5-1.5
2014-Dec-14 06:00S 66°24' E 139°30'0 0.0 110 / 12998.0 -2.2-4.9-1.5
2014-Dec-14 05:00S 66°24' E 139°30'0 0.0 110 / 12997.9 -2.0-5.6-1.5
2014-Dec-14 03:00S 66°24' E 139°30'0 0.0 100 / 9998.0 -2.3-6.9-1.5
2014-Dec-14 00:00S 66°24' E 139°30'0 0.0 100 / 8997.7 -4.7-8.8-1.7
2014-Dec-13 23:00S 66°24' E 139°30'7 0.3 110 / 9997.8 -5.7-9.3-1.6
2014-Dec-12 21:00S 66°24' E 139°48'0 0.0 100 / 2987.2 -4.8-6.2-1.0
2014-Dec-12 20:00S 66°24' E 139°48'0 0.0 130 / 8986.5 -5.0-6.0-1.1
2014-Dec-12 18:00S 66°24' E 139°48'0 0.0 140 / 4985.9 -5.5-6.6-1.1
2014-Dec-12 12:00S 66°24' E 139°48'0 0.0 130 / 7984.3 -3.9-7.1-1.1
2014-Dec-12 09:00S 66°24' E 139°48'0 0.0 983.8 -1.6-7.6-1.2
2014-Dec-12 03:00S 66°24' E 139°48'0 0.0 280 / 5982.8 -2.3-8.2-1.5
2014-Dec-12 02:00S 66°24' E 139°48'0 0.0 290 / 5982.7 -1.7-8.6-1.5
2014-Dec-12 00:00S 66°24' E 139°48'0 0.0 230 / 2982.3 -2.4-9.0-1.6
2014-Dec-11 23:00S 66°24' E 139°48'0 0.0 220 / 2981.9 -5.6-11.0-1.5
2014-Dec-11 21:00S 66°24' E 139°48'6 1.5 981.1 -8.5-13.6-1.6
2014-Dec-11 17:00S 66°18' E 139°48'2 1.2 230 / 8979.0 -6.8-10.4-1.6
2014-Dec-11 15:00S 66°18' E 139°42'12 4.1 250 / 10978.5 -3.5-5.4-1.7
2014-Dec-11 12:00S 66°06' E 139°48'19 6.2 280 / 14978.0 -3.9-5.2-1.8
2014-Dec-11 09:00S 65°48' E 140°00'2 2.5 270 / 13978.0 -3.5-5.4-1.9
2014-Dec-11 08:00S 65°48' E 140°06'12 5.8 270 / 12977.6 -3.6-6.2-1.8
2014-Dec-11 06:00S 65°42' E 140°30'10 9.9 270 / 13977.8 -3.4-5.8-1.4
2014-Dec-11 05:00S 65°42' E 140°54'48 9.6 280 / 13977.7 -3.6-6.0-1.4
2014-Dec-11 00:00S 65°12' E 142°24'   240 / 21977.9 -2.9-5.1-1.6

Dump ship's entire track history